Emmanuel Tomasos — C6SS7 — position and weather

sailwx.info

Track history (hours):
 
Tides and Currents Weather Stations Pressure Air Temp Water Temp Dewpoint Dewpoint Depression Visibility Wind Speed Wind Dir Waves Ship Positions

Emmanuel Tomasos

Last reported at 2017-Jul-11 09:18 UTC. Time now 2017-Jul-26 14:42 UTC.
Position N 27°59' W 016°22'.
Warning: this ship's position is 15 days out of date.

Length 182 m; draft 7.5 m.

Type: Tanker. MMSI: 311459000.

Date/timePositionNaut miles runAvg speedWind from/ knotsBaromVisibWave heightAir tempDewpointWater temp
2017-Jul-11 09:18N 27°59' W 016°22'514.5
2017-Jul-11 08:59N 28°02' W 016°19'814.3
2017-Jul-11 08:26N 28°09' W 016°13'614.5
2017-Jul-11 08:00N 28°13' W 016°09'715.0
2017-Jul-11 07:30N 28°19' W 016°03'815.0
2017-Jul-11 07:00N 28°25' W 015°57'814.4
2017-Jul-11 06:27N 28°31' W 015°52'614.0
2017-Jul-11 06:00N 28°36' W 015°47'713.8
2017-Jul-11 05:30N 28°41' W 015°42'714.0
2017-Jul-11 05:00N 28°45' W 015°36'713.8
2017-Jul-11 04:31N 28°50' W 015°30'714.2
2017-Jul-11 04:01N 28°55' W 015°24'714.4
2017-Jul-11 03:30N 28°60' W 015°18'714.0
2017-Jul-11 02:59N 29°05' W 015°12'713.9
2017-Jul-11 02:28N 29°10' W 015°06'4114.0
2017-Jul-10 23:34N 29°37' W 014°32'58513.3
2017-Jul-09 03:27N 35°57' W 005°42'511.6
2017-Jul-09 02:59N 35°57' W 005°35'611.6
2017-Jul-09 02:30N 35°59' W 005°29'510.7
2017-Jul-09 02:00N 36°00' W 005°22'5 9.6
2017-Jul-09 01:30N 36°01' W 005°16'5 9.1
2017-Jul-09 00:58N 36°01' W 005°10'24912.0
2017-Jul-08 04:08N 36°43' W 000°05'413.2
2017-Jul-08 03:49N 36°44' W 000°00'413.1
2017-Jul-08 03:29N 36°45' E 000°05'612.3
2017-Jul-08 03:00N 36°46' E 000°12'612.7
2017-Jul-08 02:30N 36°48' E 000°20'712.6
2017-Jul-08 01:58N 36°50' E 000°28'612.7
2017-Jul-08 01:29N 36°52' E 000°35'612.9
2017-Jul-08 01:00N 36°53' E 000°43'713.1
2017-Jul-08 00:30N 36°55' E 000°51'713.0
2017-Jul-08 00:00N 36°57' E 000°59'5413.6
2017-Jul-07 20:01N 37°09' E 002°05'014.8
2017-Jul-07 19:59N 37°09' E 002°05'714.9
2017-Jul-07 19:30N 37°10' E 002°14'714.7
2017-Jul-07 18:59N 37°11' E 002°24'714.4
2017-Jul-07 18:30N 37°11' E 002°33'1114.3
2017-Jul-07 17:44N 37°13' E 002°46'314.1
2017-Jul-07 17:30N 37°14' E 002°50'913.7
2017-Jul-07 16:50N 37°15' E 003°02'413.0
2017-Jul-07 16:30N 37°15' E 003°07'612.5
2017-Jul-07 16:00N 37°15' E 003°15'612.9
2017-Jul-07 15:30N 37°16' E 003°23'913.2
2017-Jul-07 14:49N 37°17' E 003°34'1113.4
2017-Jul-07 14:00N 37°18' E 003°48'713.6
2017-Jul-07 13:31N 37°19' E 003°56'713.7
2017-Jul-07 13:01N 37°19' E 004°05'813.8
2017-Jul-07 12:28N 37°20' E 004°14'713.8
2017-Jul-07 11:59N 37°21' E 004°22'713.7
2017-Jul-07 11:31N 37°21' E 004°31'713.9
2017-Jul-07 11:00N 37°21' E 004°40'713.7
2017-Jul-07 10:30N 37°22' E 004°48'713.4
2017-Jul-07 10:00N 37°23' E 004°56'713.3
2017-Jul-07 09:30N 37°24' E 005°05'813.4
2017-Jul-07 08:54N 37°24' E 005°15'513.6
2017-Jul-07 08:30N 37°25' E 005°21'713.7
2017-Jul-07 08:00N 37°26' E 005°30'713.7
2017-Jul-07 07:30N 37°26' E 005°39'713.7
2017-Jul-07 07:00N 37°27' E 005°47'813.6
2017-Jul-07 06:26N 37°28' E 005°57'613.6
2017-Jul-07 06:00N 37°28' E 006°04'1313.7
2017-Jul-07 05:05N 37°30' E 006°20'213.7
2017-Jul-07 04:55N 37°30' E 006°23'713.6
2017-Jul-07 04:24N 37°31' E 006°32'513.4
2017-Jul-07 04:00N 37°31' E 006°38'1013.5
2017-Jul-07 03:16N 37°32' E 006°51'413.3
2017-Jul-07 02:59N 37°32' E 006°56'713.2
2017-Jul-07 02:29N 37°33' E 007°04'1413.4
2017-Jul-07 01:25N 37°34' E 007°22'613.4
2017-Jul-07 01:00N 37°35' E 007°29'713.5
2017-Jul-07 00:29N 37°36' E 007°38'1113.5
2017-Jul-06 23:41N 37°37' E 007°51'313.5
2017-Jul-06 23:29N 37°37' E 007°54'313.3
2017-Jul-06 23:14N 37°37' E 007°59'  
2017-Jul-04 08:37N 37°28' E 023°43'213.7
2017-Jul-04 08:30N 37°30' E 023°43'713.7
2017-Jul-04 08:00N 37°36' E 023°43'713.8
2017-Jul-04 07:30N 37°43' E 023°40'714.2
2017-Jul-04 07:00N 37°49' E 023°37'511.0
2017-Jul-04 06:31N 37°53' E 023°32'0 0.1
2017-Jul-04 05:55N 37°53' E 023°32'0 0.0
2017-Jul-04 05:31N 37°53' E 023°32'0 0.0
2017-Jul-04 04:58N 37°53' E 023°32'0 0.1
2017-Jul-04 04:31N 37°53' E 023°32'0 0.0
2017-Jul-04 04:01N 37°53' E 023°32'0 0.1
2017-Jul-04 03:28N 37°53' E 023°32'0 0.0
2017-Jul-04 02:58N 37°53' E 023°32'0 0.1
2017-Jul-04 02:30N 37°53' E 023°32'0 0.0
2017-Jul-04 01:57N 37°53' E 023°32'0 0.1
2017-Jul-04 01:28N 37°53' E 023°32'0 0.0
2017-Jul-04 01:01N 37°53' E 023°32'0 0.0
2017-Jul-04 00:31N 37°53' E 023°32'0 0.0
2017-Jul-04 00:01N 37°53' E 023°32'0 0.1
2017-Jul-03 23:28N 37°53' E 023°32'0 0.1
2017-Jul-03 23:01N 37°53' E 023°32'0 0.1
2017-Jul-03 22:31N 37°53' E 023°32'0 0.1
2017-Jul-03 22:01N 37°53' E 023°32'0 0.0
2017-Jul-03 21:31N 37°53' E 023°32'0 0.0
2017-Jul-03 20:58N 37°53' E 023°32'0 0.1
2017-Jul-03 20:31N 37°53' E 023°32'0 0.0
2017-Jul-03 20:01N 37°53' E 023°32'0 0.0
2017-Jul-03 19:25N 37°53' E 023°32'0 0.1
2017-Jul-03 19:01N 37°53' E 023°32'0 0.0
2017-Jul-03 18:31N 37°53' E 023°32'0 0.1
2017-Jul-03 18:01N 37°53' E 023°32'0 0.0
2017-Jul-03 17:28N 37°53' E 023°32'0 0.0
2017-Jul-03 17:01N 37°53' E 023°32'0 0.0
2017-Jul-03 16:31N 37°53' E 023°32'0 0.2
2017-Jul-03 16:00N 37°53' E 023°32'2 4.3
2017-Jul-03 15:30N 37°52' E 023°35'5 9.2
2017-Jul-03 15:00N 37°50' E 023°40'1212.2
2017-Jul-03 13:59N 37°39' E 023°48'612.7
2017-Jul-03 13:30N 37°37' E 023°55'913.4
2017-Jul-03 12:51N 37°37' E 024°06'1113.2
2017-Jul-03 11:59N 37°43' E 024°18'13613.7
2017-Jul-03 02:02N 39°43' E 025°41'614.0
2017-Jul-03 01:34N 39°48' E 025°45'114.6
2017-Jul-03 01:28N 39°50' E 025°45'  
Track history (hours):
 
Tides and Currents Weather Stations Pressure Air Temp Water Temp Dewpoint Dewpoint Depression Visibility Wind Speed Wind Dir Waves Ship Positions

Emmanuel Tomasos

Last reported at 2017-Jul-11 09:18 UTC. Time now 2017-Jul-26 14:42 UTC.
Position N 27°59' W 016°22'.
Warning: this ship's position is 15 days out of date.

Length 182 m; draft 7.5 m.

Type: Tanker. MMSI: 311459000.

Date/timePositionNaut miles runAvg speedWind from/ knotsBaromVisibWave heightAir tempDewpointWater temp
2017-Jul-11 09:18N 27°59' W 016°22'514.5
2017-Jul-11 08:59N 28°02' W 016°19'814.3
2017-Jul-11 08:26N 28°09' W 016°13'614.5
2017-Jul-11 08:00N 28°13' W 016°09'715.0
2017-Jul-11 07:30N 28°19' W 016°03'815.0
2017-Jul-11 07:00N 28°25' W 015°57'814.4
2017-Jul-11 06:27N 28°31' W 015°52'614.0
2017-Jul-11 06:00N 28°36' W 015°47'713.8
2017-Jul-11 05:30N 28°41' W 015°42'714.0
2017-Jul-11 05:00N 28°45' W 015°36'713.8
2017-Jul-11 04:31N 28°50' W 015°30'714.2
2017-Jul-11 04:01N 28°55' W 015°24'714.4
2017-Jul-11 03:30N 28°60' W 015°18'714.0
2017-Jul-11 02:59N 29°05' W 015°12'713.9
2017-Jul-11 02:28N 29°10' W 015°06'4114.0
2017-Jul-10 23:34N 29°37' W 014°32'58513.3
2017-Jul-09 03:27N 35°57' W 005°42'511.6
2017-Jul-09 02:59N 35°57' W 005°35'611.6
2017-Jul-09 02:30N 35°59' W 005°29'510.7
2017-Jul-09 02:00N 36°00' W 005°22'5 9.6
2017-Jul-09 01:30N 36°01' W 005°16'5 9.1
2017-Jul-09 00:58N 36°01' W 005°10'24912.0
2017-Jul-08 04:08N 36°43' W 000°05'413.2
2017-Jul-08 03:49N 36°44' W 000°00'413.1
2017-Jul-08 03:29N 36°45' E 000°05'612.3
2017-Jul-08 03:00N 36°46' E 000°12'612.7
2017-Jul-08 02:30N 36°48' E 000°20'712.6
2017-Jul-08 01:58N 36°50' E 000°28'612.7
2017-Jul-08 01:29N 36°52' E 000°35'612.9
2017-Jul-08 01:00N 36°53' E 000°43'713.1
2017-Jul-08 00:30N 36°55' E 000°51'713.0
2017-Jul-08 00:00N 36°57' E 000°59'5413.6
2017-Jul-07 20:01N 37°09' E 002°05'014.8
2017-Jul-07 19:59N 37°09' E 002°05'714.9
2017-Jul-07 19:30N 37°10' E 002°14'714.7
2017-Jul-07 18:59N 37°11' E 002°24'714.4
2017-Jul-07 18:30N 37°11' E 002°33'1114.3
2017-Jul-07 17:44N 37°13' E 002°46'314.1
2017-Jul-07 17:30N 37°14' E 002°50'913.7
2017-Jul-07 16:50N 37°15' E 003°02'413.0
2017-Jul-07 16:30N 37°15' E 003°07'612.5
2017-Jul-07 16:00N 37°15' E 003°15'612.9
2017-Jul-07 15:30N 37°16' E 003°23'913.2
2017-Jul-07 14:49N 37°17' E 003°34'1113.4
2017-Jul-07 14:00N 37°18' E 003°48'713.6
2017-Jul-07 13:31N 37°19' E 003°56'713.7
2017-Jul-07 13:01N 37°19' E 004°05'813.8
2017-Jul-07 12:28N 37°20' E 004°14'713.8
2017-Jul-07 11:59N 37°21' E 004°22'713.7
2017-Jul-07 11:31N 37°21' E 004°31'713.9
2017-Jul-07 11:00N 37°21' E 004°40'713.7
2017-Jul-07 10:30N 37°22' E 004°48'713.4
2017-Jul-07 10:00N 37°23' E 004°56'713.3
2017-Jul-07 09:30N 37°24' E 005°05'813.4
2017-Jul-07 08:54N 37°24' E 005°15'513.6
2017-Jul-07 08:30N 37°25' E 005°21'713.7
2017-Jul-07 08:00N 37°26' E 005°30'713.7
2017-Jul-07 07:30N 37°26' E 005°39'713.7
2017-Jul-07 07:00N 37°27' E 005°47'813.6
2017-Jul-07 06:26N 37°28' E 005°57'613.6
2017-Jul-07 06:00N 37°28' E 006°04'1313.7
2017-Jul-07 05:05N 37°30' E 006°20'213.7
2017-Jul-07 04:55N 37°30' E 006°23'713.6
2017-Jul-07 04:24N 37°31' E 006°32'513.4
2017-Jul-07 04:00N 37°31' E 006°38'1013.5
2017-Jul-07 03:16N 37°32' E 006°51'413.3
2017-Jul-07 02:59N 37°32' E 006°56'713.2
2017-Jul-07 02:29N 37°33' E 007°04'1413.4
2017-Jul-07 01:25N 37°34' E 007°22'613.4
2017-Jul-07 01:00N 37°35' E 007°29'713.5
2017-Jul-07 00:29N 37°36' E 007°38'1113.5
2017-Jul-06 23:41N 37°37' E 007°51'313.5
2017-Jul-06 23:29N 37°37' E 007°54'313.3
2017-Jul-06 23:14N 37°37' E 007°59'  
2017-Jul-04 08:37N 37°28' E 023°43'213.7
2017-Jul-04 08:30N 37°30' E 023°43'713.7
2017-Jul-04 08:00N 37°36' E 023°43'713.8
2017-Jul-04 07:30N 37°43' E 023°40'714.2
2017-Jul-04 07:00N 37°49' E 023°37'511.0
2017-Jul-04 06:31N 37°53' E 023°32'0 0.1
2017-Jul-04 05:55N 37°53' E 023°32'0 0.0
2017-Jul-04 05:31N 37°53' E 023°32'0 0.0
2017-Jul-04 04:58N 37°53' E 023°32'0 0.1
2017-Jul-04 04:31N 37°53' E 023°32'0 0.0
2017-Jul-04 04:01N 37°53' E 023°32'0 0.1
2017-Jul-04 03:28N 37°53' E 023°32'0 0.0
2017-Jul-04 02:58N 37°53' E 023°32'0 0.1
2017-Jul-04 02:30N 37°53' E 023°32'0 0.0
2017-Jul-04 01:57N 37°53' E 023°32'0 0.1
2017-Jul-04 01:28N 37°53' E 023°32'0 0.0
2017-Jul-04 01:01N 37°53' E 023°32'0 0.0
2017-Jul-04 00:31N 37°53' E 023°32'0 0.0
2017-Jul-04 00:01N 37°53' E 023°32'0 0.1
2017-Jul-03 23:28N 37°53' E 023°32'0 0.1
2017-Jul-03 23:01N 37°53' E 023°32'0 0.1
2017-Jul-03 22:31N 37°53' E 023°32'0 0.1
2017-Jul-03 22:01N 37°53' E 023°32'0 0.0
2017-Jul-03 21:31N 37°53' E 023°32'0 0.0
2017-Jul-03 20:58N 37°53' E 023°32'0 0.1
2017-Jul-03 20:31N 37°53' E 023°32'0 0.0
2017-Jul-03 20:01N 37°53' E 023°32'0 0.0
2017-Jul-03 19:25N 37°53' E 023°32'0 0.1
2017-Jul-03 19:01N 37°53' E 023°32'0 0.0
2017-Jul-03 18:31N 37°53' E 023°32'0 0.1
2017-Jul-03 18:01N 37°53' E 023°32'0 0.0
2017-Jul-03 17:28N 37°53' E 023°32'0 0.0
2017-Jul-03 17:01N 37°53' E 023°32'0 0.0
2017-Jul-03 16:31N 37°53' E 023°32'0 0.2
2017-Jul-03 16:00N 37°53' E 023°32'2 4.3
2017-Jul-03 15:30N 37°52' E 023°35'5 9.2
2017-Jul-03 15:00N 37°50' E 023°40'1212.2
2017-Jul-03 13:59N 37°39' E 023°48'612.7
2017-Jul-03 13:30N 37°37' E 023°55'913.4
2017-Jul-03 12:51N 37°37' E 024°06'1113.2
2017-Jul-03 11:59N 37°43' E 024°18'13613.7
2017-Jul-03 02:02N 39°43' E 025°41'614.0
2017-Jul-03 01:34N 39°48' E 025°45'114.6
2017-Jul-03 01:28N 39°50' E 025°45'  

Dump ship's entire track history